createdAt,value
2022-08-26T00:00:21.418Z,20.42
2022-08-26T00:02:49.697Z,20.42
2022-08-26T00:05:18.281Z,20.42
2022-08-26T00:07:47.447Z,20.40
2022-08-26T00:10:15.989Z,20.38
2022-08-26T00:12:44.398Z,20.37
2022-08-26T00:15:16.837Z,20.38
2022-08-26T00:17:47.560Z,20.37
2022-08-26T00:20:20.423Z,20.34
2022-08-26T00:22:48.525Z,20.28
2022-08-26T00:25:18.005Z,20.26
2022-08-26T00:27:47.332Z,20.26
2022-08-26T00:30:24.150Z,20.24
2022-08-26T00:32:57.302Z,20.24
2022-08-26T00:35:28.077Z,20.24
2022-08-26T00:37:57.429Z,20.22
2022-08-26T00:40:33.640Z,20.21
2022-08-26T00:43:02.677Z,20.20
2022-08-26T00:45:44.444Z,20.19
2022-08-26T00:48:17.329Z,20.18
2022-08-26T00:50:54.072Z,20.18
2022-08-26T00:53:27.809Z,20.17
2022-08-26T00:56:02.740Z,20.15
2022-08-26T00:58:35.101Z,20.13
2022-08-26T01:01:03.366Z,20.06
2022-08-26T01:03:35.785Z,20.05
2022-08-26T01:06:05.323Z,19.99
2022-08-26T01:08:41.615Z,19.98
2022-08-26T01:11:10.797Z,19.97
2022-08-26T01:13:40.555Z,19.93
2022-08-26T01:16:15.949Z,19.90
2022-08-26T01:18:46.847Z,19.89
2022-08-26T01:21:27.251Z,19.86
2022-08-26T01:23:58.933Z,19.85
2022-08-26T01:26:32.859Z,19.82
2022-08-26T01:29:03.933Z,19.82
2022-08-26T01:31:41.724Z,19.79
2022-08-26T01:34:17.386Z,19.77
2022-08-26T01:36:50.725Z,19.75
2022-08-26T01:39:21.449Z,19.73
2022-08-26T01:41:54.392Z,19.71
2022-08-26T01:44:27.938Z,19.68
2022-08-26T01:46:58.381Z,19.66
2022-08-26T01:49:27.731Z,19.64
2022-08-26T01:51:58.217Z,19.61
2022-08-26T01:54:27.982Z,19.60
2022-08-26T01:56:56.403Z,19.59
2022-08-26T01:59:26.426Z,19.56
2022-08-26T02:01:55.059Z,19.55
2022-08-26T02:04:28.635Z,19.52
2022-08-26T02:06:58.252Z,19.51
2022-08-26T02:09:29.231Z,19.49
2022-08-26T02:12:01.835Z,19.46
2022-08-26T02:14:34.976Z,19.45
2022-08-26T02:17:13.037Z,19.42
2022-08-26T02:19:47.059Z,19.41
2022-08-26T02:22:21.717Z,19.40
2022-08-26T02:24:54.411Z,19.39
2022-08-26T02:27:26.457Z,19.39
2022-08-26T02:30:01.373Z,19.36
2022-08-26T02:32:29.797Z,19.34
2022-08-26T02:34:58.207Z,19.35
2022-08-26T02:37:31.129Z,19.37
2022-08-26T02:40:01.086Z,19.38
2022-08-26T02:42:29.989Z,19.40
2022-08-26T02:44:58.273Z,19.41
2022-08-26T02:47:26.588Z,19.42
2022-08-26T02:49:57.587Z,19.44
2022-08-26T02:52:26.456Z,19.43
2022-08-26T02:54:56.533Z,19.41
2022-08-26T02:57:26.180Z,19.40
2022-08-26T02:59:54.631Z,19.38
2022-08-26T03:02:23.142Z,19.36
2022-08-26T03:04:57.787Z,19.34
2022-08-26T03:07:29.114Z,19.33
2022-08-26T03:09:58.218Z,19.32
2022-08-26T03:12:27.991Z,19.32
2022-08-26T03:14:56.327Z,19.30
2022-08-26T03:17:24.602Z,19.30
2022-08-26T03:19:57.367Z,19.28
2022-08-26T03:22:27.009Z,19.29
2022-08-26T03:24:55.922Z,19.29
2022-08-26T03:27:24.188Z,19.27
2022-08-26T03:30:11.793Z,19.24
2022-08-26T03:32:41.419Z,19.21
2022-08-26T03:35:10.765Z,19.21
2022-08-26T03:37:40.286Z,19.18
2022-08-26T03:40:11.781Z,19.16
2022-08-26T03:42:41.861Z,19.15
2022-08-26T03:45:17.492Z,19.15
2022-08-26T03:47:47.201Z,19.14
2022-08-26T03:50:22.879Z,19.13
2022-08-26T03:52:52.931Z,19.12
2022-08-26T03:55:23.889Z,19.10
2022-08-26T03:57:52.596Z,19.09
2022-08-26T04:00:22.691Z,19.07
2022-08-26T04:02:53.292Z,19.05
2022-08-26T04:05:23.000Z,19.05
2022-08-26T04:07:51.919Z,19.05
2022-08-26T04:10:29.303Z,19.06
2022-08-26T04:12:59.317Z,19.06
2022-08-26T04:15:29.446Z,19.04
2022-08-26T04:17:58.302Z,19.03
2022-08-26T04:20:27.203Z,19.03
2022-08-26T04:22:56.446Z,19.01
2022-08-26T04:25:25.416Z,19.01
2022-08-26T04:27:54.941Z,19.01
2022-08-26T04:30:23.554Z,18.99
2022-08-26T04:32:55.072Z,18.99
2022-08-26T04:35:25.971Z,18.99
2022-08-26T04:37:55.604Z,19.00
2022-08-26T04:40:24.542Z,19.01
2022-08-26T04:42:54.282Z,19.02
2022-08-26T04:45:23.022Z,19.02
2022-08-26T04:47:56.704Z,19.03
2022-08-26T04:50:27.019Z,19.06
2022-08-26T04:52:56.380Z,19.10
2022-08-26T04:55:38.680Z,19.14
2022-08-26T04:58:12.134Z,19.22
2022-08-26T05:00:40.383Z,19.30
2022-08-26T05:03:10.716Z,19.38
2022-08-26T05:05:41.243Z,19.48
2022-08-26T05:08:11.319Z,19.54
2022-08-26T05:10:45.152Z,19.61
2022-08-26T05:13:15.713Z,19.68
2022-08-26T05:15:45.885Z,19.77
2022-08-26T05:18:21.203Z,19.84
2022-08-26T05:20:54.754Z,19.91
2022-08-26T05:23:24.534Z,20.00
2022-08-26T05:25:59.278Z,20.07
2022-08-26T05:28:30.773Z,20.15
2022-08-26T05:30:59.117Z,20.21
2022-08-26T05:33:29.469Z,20.28
2022-08-26T05:35:57.713Z,20.36
2022-08-26T05:38:26.020Z,20.42
2022-08-26T05:40:58.653Z,20.53
2022-08-26T05:43:27.804Z,20.62
2022-08-26T05:45:56.254Z,20.69
2022-08-26T05:48:25.077Z,20.75
2022-08-26T05:50:55.019Z,20.81
2022-08-26T05:53:26.242Z,20.84
2022-08-26T05:55:58.131Z,20.91
2022-08-26T05:58:27.615Z,20.95
2022-08-26T06:01:03.416Z,20.97
2022-08-26T06:03:34.395Z,21.02
2022-08-26T06:06:06.702Z,21.09
2022-08-26T06:08:35.716Z,21.15
2022-08-26T06:11:07.479Z,21.23
2022-08-26T06:13:41.802Z,21.30
2022-08-26T06:16:13.176Z,21.37
2022-08-26T06:18:44.921Z,21.47
2022-08-26T06:21:18.898Z,21.57
2022-08-26T06:24:07.590Z,21.69
2022-08-26T06:26:38.055Z,21.82
2022-08-26T06:31:36.070Z,21.96
2022-08-26T06:34:10.384Z,22.01
2022-08-26T06:36:44.763Z,22.06
2022-08-26T06:39:17.774Z,22.11
2022-08-26T06:41:46.931Z,22.17
2022-08-26T06:44:16.950Z,22.23
2022-08-26T06:46:45.703Z,22.31
2022-08-26T06:49:14.232Z,22.38
2022-08-26T06:51:47.006Z,22.42
2022-08-26T06:54:17.347Z,22.44
2022-08-26T06:56:45.724Z,22.50
2022-08-26T06:59:16.445Z,22.58
2022-08-26T07:01:46.420Z,22.63
2022-08-26T07:04:21.872Z,22.68
2022-08-26T07:06:53.975Z,22.81
2022-08-26T07:09:24.055Z,23.00
2022-08-26T07:11:55.423Z,23.25
2022-08-26T07:14:25.280Z,23.55
2022-08-26T07:16:55.567Z,23.80
2022-08-26T07:19:29.770Z,23.99
2022-08-26T07:22:03.237Z,24.22
2022-08-26T07:24:32.812Z,24.46
2022-08-26T07:27:02.948Z,24.53
2022-08-26T07:29:34.380Z,24.49
2022-08-26T07:32:02.998Z,24.44
2022-08-26T07:34:32.112Z,24.40
2022-08-26T07:37:02.820Z,24.37
2022-08-26T07:39:32.825Z,24.36
2022-08-26T07:42:03.825Z,24.36
2022-08-26T07:44:36.708Z,24.49
2022-08-26T07:47:19.345Z,24.59
2022-08-26T07:49:54.866Z,24.69
2022-08-26T07:52:26.918Z,24.86
2022-08-26T07:54:56.616Z,25.03
2022-08-26T07:57:25.119Z,25.17
2022-08-26T07:59:55.067Z,25.38
2022-08-26T08:02:25.310Z,25.54
2022-08-26T08:04:54.510Z,25.64
2022-08-26T08:07:38.594Z,25.83
2022-08-26T08:10:16.211Z,26.08
2022-08-26T08:12:44.953Z,26.14
2022-08-26T08:15:14.535Z,26.08
2022-08-26T08:17:43.932Z,26.19
2022-08-26T08:20:15.049Z,26.28
2022-08-26T08:22:45.083Z,26.41
2022-08-26T08:25:14.756Z,26.57
2022-08-26T08:27:45.689Z,26.71
2022-08-26T08:30:15.729Z,26.87
2022-08-26T08:32:51.202Z,26.93
2022-08-26T08:35:22.491Z,26.83
2022-08-26T08:37:54.784Z,26.68
2022-08-26T08:40:26.297Z,26.63
2022-08-26T08:43:03.783Z,26.71
2022-08-26T08:45:39.442Z,26.86
2022-08-26T08:48:15.236Z,27.01
2022-08-26T08:50:48.378Z,27.18
2022-08-26T08:53:26.453Z,27.34
2022-08-26T08:56:11.392Z,27.34
2022-08-26T08:58:56.927Z,27.34
2022-08-26T09:01:42.643Z,27.59
2022-08-26T09:04:30.863Z,27.90
2022-08-26T09:07:03.937Z,28.04
2022-08-26T09:09:42.076Z,28.17
2022-08-26T09:12:20.414Z,28.40
2022-08-26T09:15:03.936Z,28.54
2022-08-26T09:17:49.065Z,28.37
2022-08-26T09:20:31.010Z,28.37
2022-08-26T09:22:59.385Z,28.50
2022-08-26T09:25:29.368Z,28.41
2022-08-26T09:27:59.874Z,28.25
2022-08-26T09:30:33.023Z,28.09
2022-08-26T09:33:10.326Z,28.00
2022-08-26T09:35:43.468Z,28.01
2022-08-26T09:38:26.794Z,28.10
2022-08-26T09:41:01.196Z,28.30
2022-08-26T09:43:30.674Z,28.36
2022-08-26T09:46:16.725Z,28.31
2022-08-26T09:48:45.373Z,28.21
2022-08-26T09:51:32.598Z,28.04
2022-08-26T09:54:03.182Z,27.95
2022-08-26T09:56:37.826Z,27.86
2022-08-26T09:59:12.031Z,27.75
2022-08-26T10:01:44.782Z,27.66
2022-08-26T10:04:21.580Z,27.61
2022-08-26T10:06:59.738Z,27.59
2022-08-26T10:09:30.024Z,27.61
2022-08-26T10:12:05.357Z,27.69
2022-08-26T10:14:39.846Z,27.89
2022-08-26T10:17:17.417Z,28.06
2022-08-26T10:19:56.689Z,28.19
2022-08-26T10:22:35.578Z,28.20
2022-08-26T10:25:11.009Z,28.20
2022-08-26T10:27:53.464Z,28.17
2022-08-26T10:30:25.285Z,28.13
2022-08-26T10:33:01.704Z,28.11
2022-08-26T10:35:31.911Z,28.09
2022-08-26T10:38:09.095Z,28.04
2022-08-26T10:40:52.902Z,28.11
2022-08-26T10:43:27.185Z,28.27
2022-08-26T10:46:01.840Z,28.34
2022-08-26T10:48:42.706Z,28.35
2022-08-26T10:51:14.018Z,28.36
2022-08-26T10:53:51.374Z,28.31
2022-08-26T10:56:41.254Z,28.34
2022-08-26T10:59:21.997Z,28.43
2022-08-26T11:02:00.584Z,28.48
2022-08-26T11:04:52.212Z,28.53
2022-08-26T11:07:42.553Z,28.69
2022-08-26T11:11:04.173Z,28.97
2022-08-26T11:14:01.246Z,29.27
2022-08-26T11:16:42.878Z,29.53
2022-08-26T11:20:00.266Z,29.69
2022-08-26T11:22:32.881Z,29.89
2022-08-26T11:25:09.453Z,29.94
2022-08-26T11:28:05.252Z,29.87
2022-08-26T11:30:56.922Z,29.83
2022-08-26T11:33:59.530Z,29.81
2022-08-26T11:36:59.959Z,29.78
2022-08-26T11:39:38.647Z,29.80
2022-08-26T11:42:24.832Z,29.93
2022-08-26T11:44:58.099Z,30.08
2022-08-26T11:47:32.822Z,30.22
2022-08-26T11:50:16.422Z,30.34
2022-08-26T11:52:53.905Z,30.38
2022-08-26T11:55:23.454Z,30.31
2022-08-26T11:57:56.691Z,30.18
2022-08-26T12:00:33.313Z,30.12
2022-08-26T12:03:09.606Z,30.18
2022-08-26T12:05:46.003Z,30.28
2022-08-26T12:08:19.152Z,30.39
2022-08-26T12:10:48.289Z,30.40
2022-08-26T12:13:26.514Z,30.42
2022-08-26T12:15:57.936Z,30.48
2022-08-26T12:18:31.202Z,30.46
2022-08-26T12:21:16.005Z,30.51
2022-08-26T12:23:47.692Z,30.60
2022-08-26T12:26:26.478Z,30.61
2022-08-26T12:29:00.259Z,30.51
2022-08-26T12:31:34.253Z,30.25
2022-08-26T12:34:07.112Z,30.01
2022-08-26T12:36:50.795Z,29.83
2022-08-26T12:39:29.385Z,29.67
2022-08-26T12:41:59.864Z,29.49
2022-08-26T12:44:53.785Z,29.25
2022-08-26T12:47:43.015Z,29.01
2022-08-26T12:50:19.221Z,28.75
2022-08-26T12:53:01.268Z,28.44
2022-08-26T12:55:43.750Z,28.12
2022-08-26T12:58:22.656Z,27.92
2022-08-26T13:00:52.319Z,27.75
2022-08-26T13:03:43.889Z,27.58
2022-08-26T13:06:17.268Z,27.47
2022-08-26T13:08:48.360Z,27.37
2022-08-26T13:11:20.791Z,27.27
2022-08-26T13:13:51.756Z,27.18
2022-08-26T13:16:20.826Z,27.08
2022-08-26T13:18:50.166Z,26.98
2022-08-26T13:21:21.549Z,26.92
2022-08-26T13:23:53.521Z,26.86
2022-08-26T13:26:22.463Z,26.77
2022-08-26T13:29:01.882Z,26.73
2022-08-26T13:31:34.572Z,26.65
2022-08-26T13:34:03.781Z,26.57
2022-08-26T13:36:32.197Z,26.46
2022-08-26T13:39:02.005Z,26.33
2022-08-26T13:41:32.066Z,26.25
2022-08-26T13:44:00.973Z,26.15
2022-08-26T13:46:30.312Z,26.05
2022-08-26T13:48:59.619Z,25.93
2022-08-26T13:51:29.231Z,25.84
2022-08-26T13:53:58.514Z,25.76
2022-08-26T13:56:30.452Z,25.74
2022-08-26T13:59:00.122Z,25.77
2022-08-26T14:01:31.143Z,25.83
2022-08-26T14:03:59.712Z,25.89
2022-08-26T14:06:28.178Z,25.96
2022-08-26T14:08:56.681Z,25.99
2022-08-26T14:11:25.438Z,26.03
2022-08-26T14:13:55.108Z,26.10
2022-08-26T14:16:28.221Z,26.17
2022-08-26T14:18:56.652Z,26.20
2022-08-26T14:21:33.692Z,26.14
2022-08-26T14:24:01.999Z,26.16
2022-08-26T14:26:30.697Z,26.19
2022-08-26T14:29:02.516Z,26.19
2022-08-26T14:31:33.478Z,26.16
2022-08-26T14:34:05.935Z,26.13
2022-08-26T14:36:35.588Z,26.09
2022-08-26T14:39:07.841Z,26.11
2022-08-26T14:41:40.089Z,26.16
2022-08-26T14:44:14.601Z,26.19
2022-08-26T14:46:49.601Z,26.18
2022-08-26T14:49:19.712Z,26.15
2022-08-26T14:51:48.242Z,26.13
2022-08-26T14:54:19.922Z,26.10
2022-08-26T14:56:52.284Z,26.14
2022-08-26T14:59:25.221Z,26.20
2022-08-26T15:01:54.353Z,26.27
2022-08-26T15:04:24.770Z,26.32
2022-08-26T15:06:54.304Z,26.34
2022-08-26T15:09:23.965Z,26.33
2022-08-26T15:11:53.117Z,26.32
2022-08-26T15:14:24.175Z,26.31
2022-08-26T15:16:55.849Z,26.35
2022-08-26T15:19:27.191Z,26.36
2022-08-26T15:21:55.597Z,26.42
2022-08-26T15:24:28.783Z,26.52
2022-08-26T15:26:57.239Z,26.62
2022-08-26T15:29:26.996Z,26.71
2022-08-26T15:31:57.643Z,26.81
2022-08-26T15:34:26.415Z,26.86
2022-08-26T15:36:55.193Z,26.80
2022-08-26T15:39:23.580Z,26.73
2022-08-26T15:41:52.103Z,26.68
2022-08-26T15:44:20.706Z,26.62
2022-08-26T15:46:55.351Z,26.63
2022-08-26T15:49:26.186Z,26.65
2022-08-26T15:51:55.096Z,26.66
2022-08-26T15:54:25.141Z,26.66
2022-08-26T15:56:53.873Z,26.63
2022-08-26T15:59:23.267Z,26.60
2022-08-26T16:01:53.436Z,26.57
2022-08-26T16:04:22.254Z,26.50
2022-08-26T16:06:52.187Z,26.39
2022-08-26T16:09:24.335Z,26.28
2022-08-26T16:11:53.025Z,26.10
2022-08-26T16:14:21.670Z,25.95
2022-08-26T16:16:50.555Z,25.83
2022-08-26T16:19:21.097Z,25.69
2022-08-26T16:21:50.800Z,25.50
2022-08-26T16:24:24.806Z,25.30
2022-08-26T16:26:55.876Z,25.09
2022-08-26T16:29:24.630Z,24.93
2022-08-26T16:31:53.842Z,24.77
2022-08-26T16:34:23.719Z,24.61
2022-08-26T16:36:52.780Z,24.46
2022-08-26T16:39:21.194Z,24.32
2022-08-26T16:41:49.601Z,24.19
2022-08-26T16:44:17.941Z,24.10
2022-08-26T16:46:46.627Z,24.03
2022-08-26T16:49:15.272Z,23.97
2022-08-26T16:51:45.144Z,23.92
2022-08-26T16:54:13.520Z,23.91
2022-08-26T16:56:41.838Z,23.89
2022-08-26T16:59:11.748Z,23.86
2022-08-26T17:01:40.301Z,23.81
2022-08-26T17:04:08.695Z,23.78
2022-08-26T17:06:37.233Z,23.76
2022-08-26T17:09:07.546Z,23.74
2022-08-26T17:11:36.200Z,23.73
2022-08-26T17:14:05.300Z,23.71
2022-08-26T17:16:33.827Z,23.69
2022-08-26T17:19:04.462Z,23.68
2022-08-26T17:21:35.141Z,23.68
2022-08-26T17:24:04.881Z,23.70
2022-08-26T17:26:34.859Z,23.69
2022-08-26T17:29:03.141Z,23.70
2022-08-26T17:31:32.536Z,23.69
2022-08-26T17:34:00.885Z,23.65
2022-08-26T17:36:29.424Z,23.61
2022-08-26T17:38:59.057Z,23.57
2022-08-26T17:41:28.574Z,23.56
2022-08-26T17:43:58.231Z,23.55
2022-08-26T17:46:26.995Z,23.53
2022-08-26T17:48:55.423Z,23.50
2022-08-26T17:51:24.364Z,23.47
2022-08-26T17:53:53.255Z,23.45
2022-08-26T17:56:28.659Z,23.40
2022-08-26T17:59:02.519Z,23.36
2022-08-26T18:01:32.989Z,23.32
2022-08-26T18:04:01.595Z,23.27
2022-08-26T18:06:31.317Z,23.21
2022-08-26T18:09:00.812Z,23.13
2022-08-26T18:11:29.668Z,23.08
2022-08-26T18:13:59.900Z,23.05
2022-08-26T18:16:31.885Z,23.04
2022-08-26T18:19:00.885Z,23.05
2022-08-26T18:21:29.489Z,23.03
2022-08-26T18:23:58.146Z,22.99
2022-08-26T18:26:29.469Z,22.92
2022-08-26T18:28:59.763Z,22.83
2022-08-26T18:31:28.679Z,22.77
2022-08-26T18:33:57.049Z,22.69
2022-08-26T18:36:28.961Z,22.59
2022-08-26T18:38:58.251Z,22.49
2022-08-26T18:41:29.561Z,22.44
2022-08-26T18:43:59.822Z,22.39
2022-08-26T18:46:29.286Z,22.31
2022-08-26T18:48:58.693Z,22.26
2022-08-26T18:51:30.223Z,22.18
2022-08-26T18:53:59.692Z,22.14
2022-08-26T18:56:28.721Z,22.10
2022-08-26T18:58:58.958Z,22.03
2022-08-26T19:01:28.531Z,21.96
2022-08-26T19:03:57.834Z,21.92
2022-08-26T19:06:28.233Z,21.90
2022-08-26T19:08:58.178Z,21.84
2022-08-26T19:11:31.308Z,21.82
2022-08-26T19:14:03.438Z,21.79
2022-08-26T19:16:32.152Z,21.74
2022-08-26T19:19:01.378Z,21.71
2022-08-26T19:21:30.552Z,21.66
2022-08-26T19:24:00.977Z,21.63
2022-08-26T19:26:30.553Z,21.60
2022-08-26T19:28:59.920Z,21.59
2022-08-26T19:31:29.776Z,21.57
2022-08-26T19:33:59.517Z,21.57
2022-08-26T19:36:29.261Z,21.54
2022-08-26T19:38:58.397Z,21.49
2022-08-26T19:41:37.193Z,21.48
2022-08-26T19:44:10.155Z,21.49
2022-08-26T19:46:40.161Z,21.48
2022-08-26T19:49:08.596Z,21.52
2022-08-26T19:51:37.473Z,21.58
2022-08-26T19:54:06.458Z,21.61
2022-08-26T19:56:34.938Z,21.63
2022-08-26T19:59:03.924Z,21.63
2022-08-26T20:01:32.315Z,21.64
2022-08-26T20:04:02.018Z,21.63
2022-08-26T20:06:30.314Z,21.63
2022-08-26T20:08:59.100Z,21.64
2022-08-26T20:11:28.017Z,21.66
2022-08-26T20:13:57.132Z,21.68
2022-08-26T20:16:25.485Z,21.70
2022-08-26T20:19:11.323Z,21.73
2022-08-26T20:21:43.050Z,21.73
2022-08-26T20:24:14.930Z,21.75
2022-08-26T20:26:45.441Z,21.75
2022-08-26T20:29:16.916Z,21.74
2022-08-26T20:31:45.690Z,21.70
2022-08-26T20:34:16.528Z,21.69
2022-08-26T20:36:48.318Z,21.65
2022-08-26T20:39:18.667Z,21.66
2022-08-26T20:41:47.000Z,21.64
2022-08-26T20:44:16.727Z,21.64
2022-08-26T20:46:45.572Z,21.63
2022-08-26T20:49:14.864Z,21.61
2022-08-26T20:51:48.980Z,21.62
2022-08-26T20:54:19.477Z,21.62
2022-08-26T20:56:47.945Z,21.64
2022-08-26T20:59:17.063Z,21.65
2022-08-26T21:01:45.629Z,21.67
2022-08-26T21:04:18.719Z,21.67
2022-08-26T21:06:52.832Z,21.67
2022-08-26T21:09:22.968Z,21.67
2022-08-26T21:11:52.465Z,21.65
2022-08-26T21:14:23.237Z,21.63
2022-08-26T21:16:54.644Z,21.63
2022-08-26T21:19:23.394Z,21.65
2022-08-26T21:21:53.152Z,21.64
2022-08-26T21:24:21.562Z,21.64
2022-08-26T21:26:49.933Z,21.64
2022-08-26T21:29:18.302Z,21.61
2022-08-26T21:31:47.066Z,21.58
2022-08-26T21:34:17.085Z,21.57
2022-08-26T21:36:45.723Z,21.55
2022-08-26T21:39:16.419Z,21.53
2022-08-26T21:41:45.756Z,21.52
2022-08-26T21:44:16.203Z,21.56
2022-08-26T21:46:46.230Z,21.59
2022-08-26T21:49:16.803Z,21.58
2022-08-26T21:51:48.337Z,21.56
2022-08-26T21:54:19.467Z,21.56
2022-08-26T21:56:49.228Z,21.56
2022-08-26T21:59:20.010Z,21.58
2022-08-26T22:01:48.851Z,21.57
2022-08-26T22:04:18.631Z,21.58
2022-08-26T22:06:52.002Z,21.57
2022-08-26T22:09:25.898Z,21.57
2022-08-26T22:11:56.899Z,21.58
2022-08-26T22:14:30.629Z,21.56
2022-08-26T22:17:00.321Z,21.51
2022-08-26T22:19:29.875Z,21.45
2022-08-26T22:21:59.476Z,21.44
2022-08-26T22:24:29.442Z,21.44
2022-08-26T22:26:58.058Z,21.45
2022-08-26T22:29:27.188Z,21.48
2022-08-26T22:31:55.648Z,21.50
2022-08-26T22:34:24.042Z,21.49
2022-08-26T22:36:52.802Z,21.51
2022-08-26T22:39:25.327Z,21.52
2022-08-26T22:41:56.858Z,21.53
2022-08-26T22:44:25.636Z,21.54
2022-08-26T22:46:55.530Z,21.56
2022-08-26T22:49:24.975Z,21.59
2022-08-26T22:51:53.269Z,21.60
2022-08-26T22:54:21.835Z,21.60
2022-08-26T22:56:50.188Z,21.60
2022-08-26T22:59:19.940Z,21.56
2022-08-26T23:01:48.338Z,21.52
2022-08-26T23:04:16.846Z,21.49
2022-08-26T23:06:47.841Z,21.42
2022-08-26T23:09:18.408Z,21.37
2022-08-26T23:11:48.434Z,21.32
2022-08-26T23:14:18.068Z,21.27
2022-08-26T23:16:48.428Z,21.21
2022-08-26T23:19:22.778Z,21.15
2022-08-26T23:21:51.859Z,21.11
2022-08-26T23:24:20.563Z,21.12
2022-08-26T23:26:49.867Z,21.09
2022-08-26T23:29:18.478Z,21.07
2022-08-26T23:31:48.369Z,21.03
2022-08-26T23:34:34.139Z,20.98
2022-08-26T23:37:06.255Z,20.93
2022-08-26T23:39:37.228Z,20.87
2022-08-26T23:42:06.608Z,20.85
2022-08-26T23:44:35.433Z,20.82
2022-08-26T23:47:06.207Z,20.77
2022-08-26T23:49:35.064Z,20.76
2022-08-26T23:52:21.075Z,20.74
2022-08-26T23:54:49.419Z,20.72
2022-08-26T23:57:19.521Z,20.70
2022-08-26T23:59:49.046Z,20.68
